Time;durP1;ratioP1;P1;durP2;ratioP2;P2;SDS_P1;SDS_P2;PMS_P1;PMS_P2;Temp;Humidity;BMP_temperature;BMP_pressure;BME280_temperature;BME280_humidity;BME280_pressure;Samples;Min_cycle;Max_cycle;Signal;HPM_P1;HPM_P2
2023/07/19 00:04:26;;;;;;;2.33;1.38;;;21.10;88.60;;;;;;10387922;28;20064;-64
2023/07/19 00:09:26;;;;;;;3.10;1.48;;;21.10;88.70;;;;;;10392643;28;20375;-63
2023/07/19 00:14:27;;;;;;;2.33;1.40;;;21.10;88.80;;;;;;10390542;28;20025;-64
2023/07/19 00:19:28;;;;;;;3.58;1.48;;;21.00;88.70;;;;;;10383683;28;20022;-63
2023/07/19 00:24:28;;;;;;;2.20;1.23;;;20.90;88.70;;;;;;10386258;28;20033;-63
2023/07/19 00:29:29;;;;;;;2.55;1.40;;;21.00;88.80;;;;;;10376117;28;20401;-64
2023/07/19 00:34:29;;;;;;;1.85;1.33;;;21.00;88.80;;;;;;10381735;28;20026;-63
2023/07/19 00:39:30;;;;;;;2.97;1.33;;;20.90;88.90;;;;;;10373673;28;20044;-64
2023/07/19 00:44:31;;;;;;;2.13;1.90;;;20.90;88.90;;;;;;10390023;28;20014;-64
2023/07/19 00:49:33;;;;;;;2.55;1.27;;;20.90;88.90;;;;;;10383632;28;20454;-64
2023/07/19 00:54:33;;;;;;;1.50;1.40;;;20.90;88.90;;;;;;10380715;28;20034;-63
2023/07/19 00:59:34;;;;;;;1.65;1.13;;;20.90;89.00;;;;;;10381861;28;20549;-63
2023/07/19 01:04:35;;;;;;;2.47;1.50;;;20.80;88.90;;;;;;10375767;28;20034;-64
2023/07/19 01:09:36;;;;;;;2.20;1.50;;;20.80;89.00;;;;;;10382428;28;20034;-64
2023/07/19 01:14:37;;;;;;;3.08;1.58;;;20.80;89.00;;;;;;10379382;28;20320;-64
2023/07/19 01:19:38;;;;;;;2.05;1.83;;;20.80;89.10;;;;;;10379074;28;20552;-63
2023/07/19 01:24:40;;;;;;;2.53;1.50;;;20.70;89.00;;;;;;10379473;28;20057;-63
2023/07/19 01:29:41;;;;;;;2.30;1.40;;;20.70;89.70;;;;;;10374986;28;20569;-63
2023/07/19 01:34:41;;;;;;;3.55;1.75;;;20.80;89.20;;;;;;10379586;28;20025;-64
2023/07/19 01:39:43;;;;;;;4.88;1.63;;;20.70;89.20;;;;;;10374306;28;20025;-64
2023/07/19 01:44:43;;;;;;;3.00;1.95;;;20.70;89.20;;;;;;10378558;28;20398;-63
2023/07/19 01:49:44;;;;;;;3.00;1.45;;;20.60;89.30;;;;;;10379492;28;20033;-63
2023/07/19 01:54:44;;;;;;;2.75;1.75;;;20.60;89.30;;;;;;10383937;28;20022;-64
2023/07/19 01:59:45;;;;;;;2.25;1.70;;;20.60;89.30;;;;;;10375726;28;20034;-62
2023/07/19 02:04:46;;;;;;;3.70;1.98;;;20.60;89.40;;;;;;10384028;28;20072;-64
2023/07/19 02:09:46;;;;;;;2.45;2.08;;;20.60;89.40;;;;;;10383806;28;20101;-64
2023/07/19 02:14:47;;;;;;;4.13;1.98;;;20.50;89.40;;;;;;10381539;28;20033;-63
2023/07/19 02:19:48;;;;;;;3.08;1.85;;;20.50;89.40;;;;;;10378659;28;20033;-63
2023/07/19 02:24:49;;;;;;;2.72;1.80;;;20.50;89.50;;;;;;10373395;28;20108;-64
2023/07/19 02:29:49;;;;;;;2.03;1.77;;;20.40;89.50;;;;;;10381349;28;20061;-63
2023/07/19 02:34:50;;;;;;;1.73;1.50;;;20.50;89.60;;;;;;10383104;28;20033;-63
2023/07/19 02:39:50;;;;;;;2.72;1.70;;;20.50;89.60;;;;;;10369701;28;20112;-63
2023/07/19 02:44:51;;;;;;;2.60;1.67;;;20.40;89.60;;;;;;10377960;28;20489;-64
2023/07/19 02:49:52;;;;;;;2.28;1.73;;;20.40;89.70;;;;;;10381241;28;20037;-63
2023/07/19 02:54:52;;;;;;;4.28;1.95;;;20.40;89.70;;;;;;10382410;28;20025;-64
2023/07/19 02:59:53;;;;;;;2.67;1.83;;;20.40;89.80;;;;;;10377057;28;20025;-63
2023/07/19 03:04:55;;;;;;;1.88;1.65;;;20.40;89.80;;;;;;10376246;28;20021;-63
2023/07/19 03:09:56;;;;;;;2.35;2.08;;;20.30;89.80;;;;;;10387467;28;20052;-63
2023/07/19 03:14:56;;;;;;;2.45;1.90;;;20.30;89.80;;;;;;10377267;28;20346;-63
2023/07/19 03:19:57;;;;;;;2.08;1.70;;;20.30;89.90;;;;;;10382548;28;20121;-63
2023/07/19 03:24:58;;;;;;;2.20;1.80;;;20.30;89.90;;;;;;10391008;28;20078;-64
2023/07/19 03:29:59;;;;;;;2.67;1.95;;;20.30;90.00;;;;;;10379242;28;20545;-64
2023/07/19 03:35:00;;;;;;;2.45;2.03;;;20.20;90.00;;;;;;10380995;28;20486;-63
2023/07/19 03:40:01;;;;;;;4.22;1.75;;;20.30;90.00;;;;;;10386282;28;20030;-64
2023/07/19 03:45:01;;;;;;;3.70;2.22;;;20.20;90.10;;;;;;10382510;28;20508;-63
2023/07/19 03:50:02;;;;;;;2.55;1.70;;;20.20;90.10;;;;;;10389876;28;20011;-63
2023/07/19 03:55:06;;;;;;;2.42;1.92;;;20.20;90.10;;;;;;10392327;28;20022;-63
2023/07/19 04:00:09;;;;;;;2.05;1.70;;;20.20;90.20;;;;;;10388986;28;20110;-64
2023/07/19 04:05:09;;;;;;;4.70;2.20;;;20.20;90.20;;;;;;10400863;28;20053;-63
2023/07/19 04:10:10;;;;;;;3.85;1.90;;;20.20;90.20;;;;;;10389236;28;20486;-63
2023/07/19 04:15:10;;;;;;;2.13;1.83;;;20.20;90.20;;;;;;10383701;28;20030;-62
2023/07/19 04:20:11;;;;;;;3.50;2.13;;;20.00;90.20;;;;;;10387399;28;20041;-63
2023/07/19 04:25:12;;;;;;;2.22;1.73;;;20.10;90.30;;;;;;10383540;28;20022;-64
2023/07/19 04:30:13;;;;;;;2.22;1.55;;;20.10;90.30;;;;;;10386156;28;20021;-63
2023/07/19 04:35:14;;;;;;;3.30;1.58;;;20.10;90.30;;;;;;10388657;28;20505;-63
2023/07/19 04:40:14;;;;;;;2.95;1.77;;;20.10;90.30;;;;;;10383278;28;20069;-64
2023/07/19 04:45:15;;;;;;;3.25;1.58;;;20.10;90.30;;;;;;10394371;28;20103;-64
2023/07/19 04:50:16;;;;;;;1.42;1.02;;;20.10;90.40;;;;;;10371019;28;20028;-64
2023/07/19 04:55:17;;;;;;;1.83;1.30;;;20.10;90.30;;;;;;10377924;28;20112;-63
2023/07/19 05:00:18;;;;;;;2.45;1.50;;;20.00;90.40;;;;;;10382555;28;20472;-64
2023/07/19 05:05:19;;;;;;;2.30;1.20;;;20.00;90.40;;;;;;10374474;28;20014;-63
2023/07/19 05:10:21;;;;;;;1.65;1.00;;;20.00;90.40;;;;;;10373046;28;20022;-63
2023/07/19 05:15:21;;;;;;;2.00;1.20;;;20.00;90.40;;;;;;10370739;28;20042;-62
2023/07/19 05:20:23;;;;;;;3.80;1.58;;;20.00;90.40;;;;;;10358609;28;20422;-64
2023/07/19 05:25:23;;;;;;;1.85;1.15;;;20.00;90.40;;;;;;10368336;28;20050;-63
2023/07/19 05:30:24;;;;;;;1.95;1.08;;;20.00;90.40;;;;;;10370415;28;20045;-63
2023/07/19 05:35:25;;;;;;;2.85;1.02;;;20.00;90.70;;;;;;10373230;28;20030;-62
2023/07/19 05:40:25;;;;;;;2.05;1.00;;;20.00;90.40;;;;;;10371944;28;20022;-63
2023/07/19 05:45:26;;;;;;;2.10;1.20;;;20.00;90.40;;;;;;10374388;28;20053;-63
2023/07/19 05:50:27;;;;;;;2.13;1.00;;;20.00;90.40;;;;;;10367462;28;20029;-63
2023/07/19 05:55:28;;;;;;;1.65;1.10;;;20.00;90.40;;;;;;10369102;28;20041;-63
2023/07/19 06:00:29;;;;;;;3.80;1.00;;;20.00;90.40;;;;;;10370097;28;20025;-63
2023/07/19 06:05:29;;;;;;;1.90;0.93;;;20.00;90.40;;;;;;10354002;28;20537;-63
2023/07/19 06:10:30;;;;;;;1.10;0.88;;;20.00;90.40;;;;;;10369335;28;20021;-63
2023/07/19 06:15:35;;;;;;;1.50;0.90;;;20.00;90.40;;;;;;10369974;28;20508;-64
2023/07/19 06:20:36;;;;;;;1.80;0.80;;;20.00;90.40;;;;;;10365155;28;20033;-63
2023/07/19 06:25:37;;;;;;;1.00;0.77;;;20.10;90.40;;;;;;10369916;28;20033;-63
2023/07/19 06:30:38;;;;;;;2.25;0.98;;;20.10;90.40;;;;;;10370753;28;20030;-62
2023/07/19 06:35:39;;;;;;;1.08;0.80;;;20.10;90.40;;;;;;10373918;28;20050;-64
2023/07/19 06:40:39;;;;;;;1.23;0.70;;;20.10;90.40;;;;;;10370900;28;20280;-63
2023/07/19 06:45:40;;;;;;;1.48;0.90;;;20.10;90.40;;;;;;10370418;28;20022;-63
2023/07/19 06:50:41;;;;;;;1.60;0.77;;;20.10;90.30;;;;;;10376142;28;20029;-63
2023/07/19 06:55:42;;;;;;;1.02;0.80;;;20.10;90.30;;;;;;10369883;28;20482;-63
2023/07/19 07:00:42;;;;;;;1.33;0.77;;;20.10;90.30;;;;;;10380959;28;20426;-63
2023/07/19 07:05:46;;;;;;;2.22;0.90;;;20.10;90.30;;;;;;10380124;28;20072;-63
2023/07/19 07:10:47;;;;;;;1.05;0.85;;;20.20;90.30;;;;;;10380469;28;20018;-63
2023/07/19 07:15:49;;;;;;;2.72;1.08;;;20.20;90.30;;;;;;10384338;28;20041;-64
2023/07/19 07:20:51;;;;;;;2.17;0.98;;;20.20;90.30;;;;;;10384541;28;20075;-64
2023/07/19 07:25:53;;;;;;;2.40;0.80;;;20.10;90.30;;;;;;10377276;28;20014;-64
2023/07/19 07:30:54;;;;;;;0.93;0.88;;;20.20;90.30;;;;;;10373314;28;20052;-62
2023/07/19 07:35:54;;;;;;;1.52;1.00;;;20.10;90.30;;;;;;10386078;28;20101;-64
2023/07/19 07:41:02;;;;;;;3.58;1.10;;;20.10;90.30;;;;;;10375021;28;20553;-63
2023/07/19 07:46:02;;;;;;;1.30;0.70;;;20.20;90.30;;;;;;10383237;28;20030;-62
2023/07/19 07:51:03;;;;;;;0.80;0.70;;;20.20;90.30;;;;;;10373966;28;20280;-63
2023/07/19 07:56:04;;;;;;;1.20;0.80;;;20.20;90.20;;;;;;10385531;28;20055;-62
2023/07/19 08:01:05;;;;;;;1.23;0.80;;;20.20;90.20;;;;;;10379329;28;20387;-63
2023/07/19 08:06:05;;;;;;;0.70;0.70;;;20.20;90.20;;;;;;10380140;28;20026;-63
2023/07/19 08:11:06;;;;;;;1.00;0.70;;;20.20;90.20;;;;;;10382113;28;20041;-63
2023/07/19 08:16:07;;;;;;;2.30;0.90;;;20.30;90.20;;;;;;10379797;28;20041;-63
2023/07/19 08:21:08;;;;;;;1.85;0.90;;;20.40;90.20;;;;;;10386599;28;20095;-62
2023/07/19 08:26:08;;;;;;;1.40;0.80;;;20.40;90.10;;;;;;10376569;28;20104;-63
2023/07/19 08:31:09;;;;;;;1.05;0.77;;;20.40;90.10;;;;;;10375413;28;20055;-64
2023/07/19 08:36:10;;;;;;;2.38;1.20;;;20.40;90.00;;;;;;10381445;28;20557;-63
2023/07/19 08:41:12;;;;;;;1.98;0.88;;;20.40;90.00;;;;;;10379302;28;20088;-64
2023/07/19 08:46:15;;;;;;;1.25;0.70;;;20.50;90.00;;;;;;10379816;28;20105;-63
2023/07/19 08:51:17;;;;;;;1.83;0.90;;;20.50;90.00;;;;;;10382157;28;20155;-64
2023/07/19 08:56:19;;;;;;;1.00;0.80;;;20.50;89.90;;;;;;10382880;28;20025;-63
2023/07/19 09:01:20;;;;;;;0.90;0.70;;;20.50;89.90;;;;;;10384639;28;20025;-64
2023/07/19 09:06:23;;;;;;;1.88;0.75;;;20.50;89.80;;;;;;10383825;28;20029;-64
2023/07/19 09:11:24;;;;;;;1.20;0.70;;;20.60;89.80;;;;;;10382555;28;20517;-63
2023/07/19 09:16:29;;;;;;;1.08;0.75;;;20.60;89.70;;;;;;10383937;28;20033;-64
2023/07/19 09:21:37;;;;;;;1.52;0.70;;;20.60;89.60;;;;;;10386967;28;20401;-64
2023/07/19 09:26:53;;;;;;;1.48;0.95;;;20.70;89.60;;;;;;10384410;28;20028;-63
2023/07/19 09:31:55;;;;;;;1.15;0.88;;;20.70;89.60;;;;;;10376090;28;20022;-62
2023/07/19 09:36:58;;;;;;;1.15;0.80;;;20.70;89.40;;;;;;10382179;28;20029;-63
2023/07/19 09:42:03;;;;;;;2.58;0.80;;;20.80;89.40;;;;;;10379290;28;20045;-63
2023/07/19 09:47:08;;;;;;;1.55;0.77;;;20.80;89.40;;;;;;10379282;28;20022;-63
2023/07/19 09:52:13;;;;;;;1.23;0.73;;;20.90;89.30;;;;;;10365701;28;20149;-63
2023/07/19 09:57:16;;;;;;;1.33;0.80;;;20.90;89.20;;;;;;10389215;28;20497;-62
2023/07/19 10:02:17;;;;;;;1.77;0.80;;;21.00;89.00;;;;;;10380977;28;20030;-63
2023/07/19 10:07:19;;;;;;;1.98;0.73;;;21.10;89.00;;;;;;10377937;28;20014;-64
2023/07/19 10:12:19;;;;;;;1.80;0.90;;;21.10;88.90;;;;;;10383560;28;20029;-64
2023/07/19 10:17:21;;;;;;;1.30;0.90;;;21.10;88.80;;;;;;10376502;28;20044;-63
2023/07/19 10:22:21;;;;;;;0.80;0.70;;;21.10;88.70;;;;;;10370189;28;20014;-64
2023/07/19 10:27:35;;;;;;;1.27;0.70;;;21.20;88.70;;;;;;10387045;28;20406;-63
2023/07/19 10:32:36;;;;;;;0.85;0.70;;;21.20;88.70;;;;;;10379500;28;20029;-63
2023/07/19 10:37:36;;;;;;;1.10;0.70;;;21.20;88.60;;;;;;10376139;28;20470;-62
2023/07/19 10:42:37;;;;;;;1.77;0.80;;;21.20;88.50;;;;;;10380443;28;20052;-63
2023/07/19 10:47:37;;;;;;;1.02;0.70;;;21.30;88.50;;;;;;10366049;28;20022;-64
2023/07/19 10:52:38;;;;;;;2.15;0.90;;;21.30;88.40;;;;;;10375008;28;20030;-62
2023/07/19 10:57:39;;;;;;;1.95;0.73;;;21.40;88.40;;;;;;10376052;28;20025;-63
2023/07/19 11:02:40;;;;;;;1.45;0.80;;;21.40;88.30;;;;;;10380392;28;20458;-63
2023/07/19 11:07:41;;;;;;;1.25;0.77;;;21.50;88.30;;;;;;10381081;28;20118;-64
2023/07/19 11:12:41;;;;;;;1.13;0.73;;;21.40;88.30;;;;;;10382806;28;20660;-63
2023/07/19 11:17:42;;;;;;;2.55;0.80;;;21.40;88.20;;;;;;10387030;28;20486;-64
2023/07/19 11:22:43;;;;;;;1.15;0.70;;;21.40;88.30;;;;;;10377337;28;20225;-64
2023/07/19 11:27:49;;;;;;;0.82;0.70;;;21.50;88.20;;;;;;10378631;28;20028;-64
2023/07/19 11:33:03;;;;;;;0.93;0.70;;;21.50;88.10;;;;;;10379294;28;20029;-64
2023/07/19 11:38:04;;;;;;;1.08;0.60;;;21.50;88.00;;;;;;10366020;28;20064;-64
2023/07/19 11:43:05;;;;;;;0.68;0.68;;;21.50;88.10;;;;;;10378909;28;20651;-63
2023/07/19 11:48:05;;;;;;;0.98;0.77;;;21.50;88.10;;;;;;10394513;28;20018;-64
2023/07/19 11:53:06;;;;;;;2.10;0.90;;;21.60;88.00;;;;;;10380267;28;20025;-64
2023/07/19 11:58:07;;;;;;;1.80;0.80;;;21.70;87.90;;;;;;10375973;28;20026;-63
2023/07/19 12:03:08;;;;;;;0.98;0.75;;;21.70;87.80;;;;;;10385768;28;20033;-63
2023/07/19 12:08:08;;;;;;;2.17;0.90;;;21.70;87.80;;;;;;10382235;28;20021;-63
2023/07/19 12:13:09;;;;;;;1.83;0.88;;;21.70;87.90;;;;;;10392124;28;20014;-62
2023/07/19 12:18:10;;;;;;;0.77;0.63;;;21.70;87.90;;;;;;10389316;28;20128;-62
2023/07/19 12:23:10;;;;;;;1.88;0.88;;;21.70;88.50;;;;;;10383992;28;20064;-62
2023/07/19 12:28:11;;;;;;;1.48;0.73;;;21.70;88.10;;;;;;10372717;28;20022;-63
2023/07/19 12:33:12;;;;;;;1.60;0.65;;;21.70;88.20;;;;;;10378836;28;20076;-63
2023/07/19 12:38:13;;;;;;;1.30;0.80;;;21.70;88.20;;;;;;10372413;28;20098;-63
2023/07/19 12:43:14;;;;;;;1.20;0.70;;;21.60;88.20;;;;;;10378457;28;20414;-63
2023/07/19 12:48:15;;;;;;;1.90;0.80;;;21.70;88.30;;;;;;10374255;28;20061;-62
2023/07/19 12:53:18;;;;;;;1.38;0.90;;;21.70;88.30;;;;;;10377724;28;20079;-63
2023/07/19 12:58:19;;;;;;;0.63;0.60;;;21.70;88.40;;;;;;10383807;28;20029;-62
2023/07/19 13:03:21;;;;;;;1.45;0.80;;;21.70;88.40;;;;;;10382163;28;20100;-63
2023/07/19 13:08:22;;;;;;;0.95;0.80;;;21.70;88.20;;;;;;10385173;28;20028;-63
2023/07/19 13:13:23;;;;;;;1.67;0.75;;;21.80;88.10;;;;;;10384779;28;20417;-63
2023/07/19 13:18:24;;;;;;;2.05;1.00;;;21.80;88.00;;;;;;10380093;28;20037;-63
2023/07/19 13:23:25;;;;;;;1.77;0.80;;;21.90;87.90;;;;;;10379343;28;20117;-63
2023/07/19 13:28:25;;;;;;;1.17;0.68;;;22.00;87.80;;;;;;10378450;28;20040;-63
2023/07/19 13:33:27;;;;;;;1.02;0.80;;;22.20;87.80;;;;;;10377773;28;20028;-63
2023/07/19 13:38:28;;;;;;;1.08;0.90;;;22.10;87.60;;;;;;10375126;28;20533;-63
2023/07/19 13:43:28;;;;;;;1.20;0.70;;;22.10;87.40;;;;;;10375794;28;20113;-63
2023/07/19 13:48:29;;;;;;;1.05;0.80;;;22.20;87.30;;;;;;10382917;28;20019;-63
2023/07/19 13:53:30;;;;;;;1.40;0.73;;;22.30;87.30;;;;;;10375820;28;20506;-64
2023/07/19 13:58:30;;;;;;;1.33;0.85;;;22.30;87.10;;;;;;10388245;28;20029;-63
2023/07/19 14:03:31;;;;;;;1.45;0.55;;;22.40;86.90;;;;;;10384665;28;20025;-63
2023/07/19 14:08:32;;;;;;;0.98;0.60;;;22.40;86.80;;;;;;10383206;28;20014;-63
2023/07/19 14:13:32;;;;;;;2.10;0.98;;;22.40;86.80;;;;;;10382481;28;20018;-64
2023/07/19 14:18:34;;;;;;;2.83;0.90;;;22.40;86.80;;;;;;10379477;28;20034;-64
2023/07/19 14:23:35;;;;;;;2.38;0.90;;;22.50;86.90;;;;;;10372177;28;20022;-63
2023/07/19 14:28:36;;;;;;;2.22;0.93;;;22.50;86.80;;;;;;10373097;28;20217;-63
2023/07/19 14:33:36;;;;;;;1.13;0.65;;;22.60;86.70;;;;;;10364716;28;20088;-63
2023/07/19 14:38:37;;;;;;;1.10;0.80;;;22.70;86.40;;;;;;10366884;28;20581;-63
2023/07/19 14:43:38;;;;;;;1.15;0.80;;;22.90;86.20;;;;;;10374943;28;20027;-64
2023/07/19 14:48:39;;;;;;;1.27;0.80;;;23.00;85.90;;;;;;10372192;28;20034;-64
2023/07/19 14:53:40;;;;;;;1.75;0.80;;;23.10;85.80;;;;;;10373301;28;20050;-63
2023/07/19 14:58:41;;;;;;;1.65;0.95;;;23.00;85.90;;;;;;10375384;28;20064;-66
2023/07/19 15:03:41;;;;;;;2.45;1.23;;;22.80;85.30;;;;;;10387234;28;20060;-66
2023/07/19 15:08:42;;;;;;;2.38;0.93;;;22.50;86.10;;;;;;10388476;28;20048;-65
2023/07/19 15:13:43;;;;;;;2.17;1.10;;;22.40;85.30;;;;;;10387060;28;20116;-66
2023/07/19 15:18:44;;;;;;;2.90;1.10;;;22.40;85.20;;;;;;10369059;28;20446;-66
2023/07/19 15:23:44;;;;;;;3.35;1.10;;;22.20;84.90;;;;;;10368737;28;20108;-66
2023/07/19 15:28:46;;;;;;;2.30;1.63;;;22.30;85.00;;;;;;10376078;28;20291;-66
2023/07/19 15:33:47;;;;;;;1.63;1.00;;;22.20;84.80;;;;;;10375614;28;20047;-66
2023/07/19 15:38:48;;;;;;;2.38;1.05;;;22.00;84.70;;;;;;10370628;28;20471;-66
2023/07/19 15:43:49;;;;;;;2.10;1.00;;;22.00;84.60;;;;;;10371659;28;20037;-66
2023/07/19 15:48:49;;;;;;;2.83;1.10;;;22.00;84.70;;;;;;10380929;28;20026;-65
2023/07/19 15:53:50;;;;;;;1.95;1.00;;;22.00;84.60;;;;;;10373109;28;20367;-65
2023/07/19 15:58:51;;;;;;;3.28;0.90;;;22.00;84.60;;;;;;10374369;28;20223;-65
2023/07/19 16:03:51;;;;;;;2.05;1.10;;;22.00;84.40;;;;;;10372192;28;20030;-66
2023/07/19 16:08:52;;;;;;;2.13;1.10;;;21.80;84.30;;;;;;10377586;28;20018;-68
2023/07/19 16:13:54;;;;;;;2.70;1.10;;;21.70;84.50;;;;;;10383564;28;20024;-69
2023/07/19 16:18:54;;;;;;;3.22;1.23;;;21.60;84.80;;;;;;10378903;28;20038;-67
2023/07/19 16:23:55;;;;;;;4.13;1.23;;;21.50;84.80;;;;;;10372151;28;20056;-67
2023/07/19 16:28:56;;;;;;;2.22;1.23;;;21.50;84.70;;;;;;10373394;28;20381;-67
2023/07/19 16:33:57;;;;;;;2.47;1.40;;;21.40;84.50;;;;;;10374495;28;20079;-67
2023/07/19 16:38:57;;;;;;;2.70;1.00;;;21.30;84.80;;;;;;10366223;28;20029;-67
2023/07/19 16:43:58;;;;;;;2.20;0.90;;;21.30;85.10;;;;;;10375287;28;20026;-67
2023/07/19 16:49:00;;;;;;;2.67;0.90;;;21.20;84.40;;;;;;10374949;28;20153;-67
2023/07/19 16:54:00;;;;;;;1.63;0.77;;;21.10;84.50;;;;;;10374571;28;20021;-67
2023/07/19 16:59:01;;;;;;;1.83;1.00;;;21.10;84.50;;;;;;10379454;28;20030;-68
2023/07/19 17:04:02;;;;;;;3.42;1.30;;;21.10;84.50;;;;;;10372081;28;20623;-68
2023/07/19 17:09:02;;;;;;;2.33;0.95;;;21.10;84.50;;;;;;10370042;28;20019;-68
2023/07/19 17:14:03;;;;;;;2.17;1.05;;;21.00;84.50;;;;;;10375563;28;20319;-67
2023/07/19 17:19:04;;;;;;;1.70;0.73;;;21.00;84.50;;;;;;10374976;28;20052;-67
2023/07/19 17:24:05;;;;;;;1.58;0.98;;;21.10;84.30;;;;;;10371385;28;20041;-68
2023/07/19 17:29:06;;;;;;;1.83;1.10;;;21.10;84.30;;;;;;10370237;28;20641;-67
2023/07/19 17:34:07;;;;;;;1.50;1.10;;;21.10;84.40;;;;;;10376626;28;20028;-67
2023/07/19 17:39:07;;;;;;;2.38;1.00;;;21.00;84.60;;;;;;10400249;28;20160;-66
2023/07/19 17:44:08;;;;;;;2.75;0.80;;;21.00;84.70;;;;;;10374347;28;20605;-66
2023/07/19 17:49:08;;;;;;;1.65;1.00;;;21.00;84.60;;;;;;10371269;28;20029;-66
2023/07/19 17:54:09;;;;;;;1.58;0.80;;;20.90;84.50;;;;;;10371627;28;20106;-66
2023/07/19 17:59:10;;;;;;;2.92;0.98;;;20.90;84.30;;;;;;10381985;28;20112;-66
2023/07/19 18:04:10;;;;;;;2.28;1.20;;;20.90;84.30;;;;;;10381101;28;20293;-65
2023/07/19 18:09:11;;;;;;;2.45;0.93;;;20.90;84.50;;;;;;10376052;28;20016;-65
2023/07/19 18:14:11;;;;;;;2.97;0.93;;;20.90;84.40;;;;;;10355997;28;20066;-64
2023/07/19 18:19:12;;;;;;;1.90;0.80;;;21.00;84.50;;;;;;10367981;28;20037;-64
2023/07/19 18:24:13;;;;;;;1.27;0.73;;;21.00;84.40;;;;;;10372651;28;20034;-64
2023/07/19 18:29:13;;;;;;;1.33;0.68;;;21.10;84.40;;;;;;10366286;28;20033;-64
2023/07/19 18:34:14;;;;;;;0.77;0.77;;;21.10;84.40;;;;;;10374612;28;20035;-65
2023/07/19 18:39:15;;;;;;;2.55;1.08;;;21.10;84.50;;;;;;10371648;28;20501;-65
2023/07/19 18:44:15;;;;;;;1.80;0.90;;;21.10;84.60;;;;;;10358397;28;20037;-65
2023/07/19 18:49:16;;;;;;;1.85;0.80;;;21.10;84.70;;;;;;10372512;28;20095;-64
2023/07/19 18:54:16;;;;;;;0.82;0.70;;;21.20;84.80;;;;;;10373519;28;20537;-64
2023/07/19 18:59:41;;;;;;;1.02;0.77;;;21.10;84.80;;;;;;10339632;28;20521;-64
2023/07/19 19:04:42;;;;;;;0.93;0.88;;;21.20;85.00;;;;;;10314955;28;20069;-65
2023/07/19 19:09:43;;;;;;;0.77;0.70;;;21.20;85.10;;;;;;10328001;28;20106;-65
2023/07/19 19:14:43;;;;;;;1.92;0.80;;;21.10;85.10;;;;;;10329351;28;20113;-65
2023/07/19 19:19:44;;;;;;;1.08;0.80;;;21.10;85.20;;;;;;10320005;28;20097;-66
2023/07/19 19:24:45;;;;;;;0.75;0.70;;;21.10;85.20;;;;;;10320177;28;20050;-65
2023/07/19 19:29:45;;;;;;;0.52;0.50;;;21.10;85.30;;;;;;10318776;28;20901;-65
2023/07/19 19:34:46;;;;;;;1.63;0.70;;;21.10;85.40;;;;;;10320149;28;20038;-65
2023/07/19 19:39:46;;;;;;;1.85;1.00;;;21.10;85.40;;;;;;10322657;28;20030;-65
2023/07/19 19:44:47;;;;;;;3.17;0.95;;;21.10;85.50;;;;;;10324842;28;20483;-64
2023/07/19 19:49:48;;;;;;;1.77;1.00;;;21.10;85.60;;;;;;10319786;28;20030;-65
2023/07/19 19:54:48;;;;;;;1.05;0.70;;;21.10;85.80;;;;;;10315580;28;20034;-64
2023/07/19 19:59:49;;;;;;;2.40;0.80;;;21.10;85.80;;;;;;10323711;28;20023;-64
2023/07/19 20:04:50;;;;;;;1.55;0.70;;;21.10;85.80;;;;;;10322209;28;20524;-65
2023/07/19 20:09:51;;;;;;;2.50;0.70;;;21.00;85.80;;;;;;10319825;28;20035;-64
2023/07/19 20:14:51;;;;;;;2.78;0.85;;;21.00;85.90;;;;;;10320685;28;20096;-65
2023/07/19 20:19:52;;;;;;;0.80;0.80;;;21.10;85.90;;;;;;10318331;28;20032;-65
2023/07/19 20:24:53;;;;;;;0.93;0.60;;;20.80;85.90;;;;;;10347133;28;20501;-65
2023/07/19 20:29:54;;;;;;;1.05;0.70;;;21.00;86.00;;;;;;10312871;28;20030;-65
2023/07/19 20:34:55;;;;;;;1.23;0.70;;;20.90;86.00;;;;;;10320776;28;20833;-65
2023/07/19 20:39:55;;;;;;;1.00;0.80;;;20.90;86.10;;;;;;10317003;28;20551;-64
2023/07/19 20:44:56;;;;;;;1.70;0.98;;;20.90;86.10;;;;;;10319382;28;20022;-64
2023/07/19 20:49:57;;;;;;;0.70;0.60;;;20.90;86.20;;;;;;10316131;28;20030;-65
2023/07/19 20:54:57;;;;;;;0.73;0.60;;;20.90;86.20;;;;;;10320184;28;20026;-65
2023/07/19 20:59:58;;;;;;;1.73;0.70;;;20.90;86.30;;;;;;10321115;28;20033;-65
2023/07/19 21:04:59;;;;;;;0.73;0.70;;;20.90;86.30;;;;;;10316918;28;20033;-65
2023/07/19 21:10:00;;;;;;;1.83;0.90;;;20.90;86.30;;;;;;10318066;28;20518;-65
2023/07/19 21:15:01;;;;;;;2.10;0.90;;;20.80;86.30;;;;;;10311307;28;20062;-64
2023/07/19 21:20:02;;;;;;;2.60;1.00;;;20.80;86.40;;;;;;10315093;28;20022;-64
2023/07/19 21:25:03;;;;;;;0.90;0.68;;;20.80;86.40;;;;;;10318885;28;20022;-64
2023/07/19 21:30:05;;;;;;;1.10;0.98;;;20.80;86.60;;;;;;10322311;28;20018;-64
2023/07/19 21:35:06;;;;;;;1.00;0.90;;;20.80;86.50;;;;;;10314826;28;20387;-63
2023/07/19 21:40:07;;;;;;;1.90;1.00;;;20.80;86.60;;;;;;10316379;28;20019;-64
2023/07/19 21:45:08;;;;;;;2.45;1.00;;;20.80;86.60;;;;;;10309804;28;20169;-64
2023/07/19 21:50:09;;;;;;;1.50;1.10;;;20.80;86.70;;;;;;10324868;28;20546;-64
2023/07/19 21:55:10;;;;;;;2.08;1.00;;;20.70;86.80;;;;;;10315895;28;20482;-64
2023/07/19 22:00:11;;;;;;;1.10;1.00;;;20.70;87.00;;;;;;10313516;28;20026;-65
2023/07/19 22:05:11;;;;;;;1.30;0.90;;;20.70;87.10;;;;;;10321061;28;20693;-64
2023/07/19 22:10:12;;;;;;;2.05;1.27;;;20.70;87.30;;;;;;10310771;28;20023;-64
2023/07/19 22:15:15;;;;;;;1.33;1.05;;;20.60;87.40;;;;;;10322719;28;20038;-64
2023/07/19 22:20:16;;;;;;;3.17;0.90;;;20.60;87.50;;;;;;10320105;28;20034;-64
2023/07/19 22:25:16;;;;;;;1.67;1.13;;;20.60;87.70;;;;;;10318911;28;20030;-63
2023/07/19 22:30:17;;;;;;;1.15;0.90;;;20.50;87.80;;;;;;10319445;28;20014;-64
2023/07/19 22:35:18;;;;;;;1.05;0.93;;;20.50;87.90;;;;;;10312657;28;20022;-63
2023/07/19 22:40:18;;;;;;;1.45;1.10;;;20.50;88.00;;;;;;10316932;28;20018;-64
2023/07/19 22:45:20;;;;;;;1.10;0.90;;;20.50;88.20;;;;;;10306519;28;20036;-65
2023/07/19 22:50:21;;;;;;;1.00;0.90;;;20.40;88.30;;;;;;10310606;28;20022;-64
2023/07/19 22:55:22;;;;;;;1.42;1.17;;;20.40;88.40;;;;;;10313996;28;20203;-64
2023/07/19 23:00:23;;;;;;;4.10;0.90;;;20.40;88.60;;;;;;10318396;28;20049;-63
2023/07/19 23:05:24;;;;;;;1.98;0.93;;;20.40;88.70;;;;;;10316395;28;20041;-64
2023/07/19 23:10:27;;;;;;;2.58;1.00;;;20.40;88.80;;;;;;10319888;28;20022;-64
2023/07/19 23:15:28;;;;;;;1.27;0.82;;;20.40;88.90;;;;;;10315831;28;20271;-64
2023/07/19 23:20:28;;;;;;;1.80;1.00;;;20.30;89.00;;;;;;10316286;28;20026;-65
2023/07/19 23:25:30;;;;;;;1.45;0.90;;;20.30;89.10;;;;;;10321759;28;20022;-64
2023/07/19 23:30:32;;;;;;;1.05;0.80;;;20.30;89.20;;;;;;10310901;28;20266;-63
2023/07/19 23:35:34;;;;;;;1.25;0.70;;;20.30;89.20;;;;;;10311769;28;20529;-63
2023/07/19 23:40:34;;;;;;;0.90;0.80;;;20.30;89.30;;;;;;10321229;28;20029;-64
2023/07/19 23:45:35;;;;;;;1.33;0.98;;;20.20;89.30;;;;;;10329139;28;20018;-64
2023/07/19 23:50:35;;;;;;;1.00;0.88;;;20.20;89.30;;;;;;10326048;28;20535;-63
2023/07/19 23:55:36;;;;;;;1.02;0.70;;;20.20;89.40;;;;;;10320399;28;20034;-64
